createdAt,value
2022-11-23T00:01:36.515Z,98374.81
2022-11-23T00:04:08.031Z,98367.63
2022-11-23T00:06:38.613Z,98364.53
2022-11-23T00:09:07.064Z,98362.09
2022-11-23T00:11:36.358Z,98363.22
2022-11-23T00:14:04.578Z,98364.53
2022-11-23T00:16:32.369Z,98365.84
2022-11-23T00:19:02.388Z,98372.28
2022-11-23T00:21:32.888Z,98369.09
2022-11-23T00:24:00.857Z,98369.66
2022-11-23T00:26:28.632Z,98369.06
2022-11-23T00:28:56.248Z,98370.84
2022-11-23T00:31:27.723Z,98351.81
2022-11-23T00:33:57.660Z,98353.00
2022-11-23T00:36:27.668Z,98345.47
2022-11-23T00:38:55.667Z,98347.19
2022-11-23T00:41:26.900Z,98345.00
2022-11-23T00:43:54.665Z,98352.50
2022-11-23T00:46:25.489Z,98342.84
2022-11-23T00:48:55.408Z,98349.28
2022-11-23T00:51:30.275Z,98353.66
2022-11-23T00:53:59.415Z,98356.69
2022-11-23T00:56:29.725Z,98365.75
2022-11-23T00:58:59.310Z,98360.13
2022-11-23T01:01:31.019Z,98349.16
2022-11-23T01:04:00.386Z,98352.47
2022-11-23T01:06:36.812Z,98367.88
2022-11-23T01:09:14.271Z,98361.13
2022-11-23T01:11:41.824Z,98340.75
2022-11-23T01:14:09.310Z,98340.84
2022-11-23T01:16:41.291Z,98344.59
2022-11-23T01:19:17.446Z,98331.28
2022-11-23T01:21:48.266Z,98330.66
2022-11-23T01:24:22.317Z,98317.09
2022-11-23T01:26:54.805Z,98310.13
2022-11-23T01:29:25.983Z,98319.53
2022-11-23T01:31:53.537Z,98315.28
2022-11-23T01:34:22.306Z,98325.53
2022-11-23T01:36:50.938Z,98330.75
2022-11-23T01:39:18.508Z,98316.00
2022-11-23T01:41:46.585Z,98318.50
2022-11-23T01:44:33.977Z,98292.44
2022-11-23T01:47:05.170Z,98279.16
2022-11-23T01:49:42.815Z,98273.91
2022-11-23T01:52:24.541Z,98267.47
2022-11-23T01:55:00.597Z,98266.41
2022-11-23T01:57:39.287Z,98264.22
2022-11-23T02:00:08.369Z,98267.63
2022-11-23T02:02:54.264Z,98278.94
2022-11-23T02:05:31.202Z,98269.72
2022-11-23T02:08:02.843Z,98258.19
2022-11-23T02:10:32.255Z,98264.41
2022-11-23T02:13:11.432Z,98277.06
2022-11-23T02:15:39.897Z,98286.00
2022-11-23T02:18:25.233Z,98289.00
2022-11-23T02:20:54.497Z,98272.59
2022-11-23T02:23:51.371Z,98269.06
2022-11-23T02:26:26.394Z,98262.41
2022-11-23T02:29:16.458Z,98260.66
2022-11-23T02:31:44.017Z,98268.97
2022-11-23T02:34:11.523Z,98255.97
2022-11-23T02:36:41.646Z,98257.66
2022-11-23T02:39:27.921Z,98262.63
2022-11-23T02:41:56.591Z,98272.25
2022-11-23T02:44:48.742Z,98267.25
2022-11-23T02:47:16.933Z,98267.63
2022-11-23T02:49:48.199Z,98265.06
2022-11-23T02:52:18.316Z,98256.59
2022-11-23T02:54:46.853Z,98258.94
2022-11-23T02:57:14.983Z,98252.78
2022-11-23T02:59:46.351Z,98252.50
2022-11-23T03:02:13.948Z,98251.22
2022-11-23T03:04:41.477Z,98245.00
2022-11-23T03:07:09.182Z,98241.00
2022-11-23T03:09:36.865Z,98242.19
2022-11-23T03:12:04.594Z,98244.06
2022-11-23T03:14:32.238Z,98241.63
2022-11-23T03:17:00.739Z,98240.88
2022-11-23T03:19:32.222Z,98247.91
2022-11-23T03:22:00.138Z,98242.94
2022-11-23T03:24:31.188Z,98239.34
2022-11-23T03:26:59.881Z,98242.81
2022-11-23T03:29:27.422Z,98242.25
2022-11-23T03:31:57.539Z,98239.00
2022-11-23T03:34:25.548Z,98230.97
2022-11-23T03:36:53.065Z,98228.50
2022-11-23T03:39:21.117Z,98233.81
2022-11-23T03:42:08.998Z,98221.09
2022-11-23T03:44:36.923Z,98221.50
2022-11-23T03:47:05.688Z,98219.09
2022-11-23T03:49:38.490Z,98225.41
2022-11-23T03:52:06.147Z,98214.66
2022-11-23T03:54:33.792Z,98204.91
2022-11-23T03:57:01.297Z,98195.84
2022-11-23T03:59:28.871Z,98198.13
2022-11-23T04:02:02.213Z,98220.84
2022-11-23T04:04:33.672Z,98236.38
2022-11-23T04:07:25.094Z,98239.47
2022-11-23T04:09:58.251Z,98245.56
2022-11-23T04:12:46.356Z,98240.50
2022-11-23T04:15:15.295Z,98234.16
2022-11-23T04:17:43.419Z,98227.59
2022-11-23T04:20:11.719Z,98240.84
2022-11-23T04:22:39.346Z,98234.34
2022-11-23T04:25:07.515Z,98229.91
2022-11-23T04:27:35.037Z,98228.28
2022-11-23T04:30:04.023Z,98230.75
2022-11-23T04:32:31.962Z,98231.78
2022-11-23T04:35:00.384Z,98232.94
2022-11-23T04:37:28.237Z,98234.91
2022-11-23T04:39:55.769Z,98236.91
2022-11-23T04:42:46.066Z,98233.38
2022-11-23T04:45:14.579Z,98232.94
2022-11-23T04:47:43.575Z,98234.34
2022-11-23T04:50:14.312Z,98231.94
2022-11-23T04:52:45.461Z,98234.63
2022-11-23T04:55:19.731Z,98245.78
2022-11-23T04:57:55.578Z,98253.97
2022-11-23T05:00:25.525Z,98256.75
2022-11-23T05:02:55.718Z,98242.81
2022-11-23T05:05:27.338Z,98247.16
2022-11-23T05:07:56.678Z,98242.94
2022-11-23T05:10:27.316Z,98238.13
2022-11-23T05:12:59.049Z,98249.25
2022-11-23T05:15:27.413Z,98260.16
2022-11-23T05:18:00.314Z,98262.75
2022-11-23T05:20:28.005Z,98248.69
2022-11-23T05:22:55.544Z,98242.69
2022-11-23T05:25:26.123Z,98228.88
2022-11-23T05:28:16.547Z,98227.44
2022-11-23T05:30:49.435Z,98231.50
2022-11-23T05:33:17.022Z,98224.47
2022-11-23T05:35:44.935Z,98236.31
2022-11-23T05:38:12.602Z,98250.69
2022-11-23T05:40:41.066Z,98256.72
2022-11-23T05:43:10.250Z,98272.88
2022-11-23T05:45:37.887Z,98272.63
2022-11-23T05:48:06.492Z,98273.72
2022-11-23T05:50:55.159Z,98276.63
2022-11-23T05:53:29.034Z,98267.97
2022-11-23T05:56:07.815Z,98270.09
2022-11-23T05:58:43.009Z,98266.78
2022-11-23T06:01:11.461Z,98259.09
2022-11-23T06:03:40.225Z,98260.66
2022-11-23T06:06:07.983Z,98251.38
2022-11-23T06:08:40.578Z,98253.28
2022-11-23T06:11:08.330Z,98253.69
2022-11-23T06:13:35.846Z,98248.41
2022-11-23T06:16:03.612Z,98251.56
2022-11-23T06:18:44.293Z,98244.28
2022-11-23T06:21:11.854Z,98236.34
2022-11-23T06:23:39.363Z,98244.56
2022-11-23T06:26:07.766Z,98236.34
2022-11-23T06:28:37.140Z,98238.44
2022-11-23T06:31:07.012Z,98242.06
2022-11-23T06:33:35.691Z,98231.69
2022-11-23T06:36:04.701Z,98247.59
2022-11-23T06:38:38.591Z,98255.63
2022-11-23T06:41:18.962Z,98262.06
2022-11-23T06:43:48.750Z,98274.16
2022-11-23T06:46:25.339Z,98275.19
2022-11-23T06:48:52.860Z,98271.19
2022-11-23T06:51:24.172Z,98288.44
2022-11-23T06:53:52.706Z,98297.22
2022-11-23T06:56:20.857Z,98290.22
2022-11-23T06:58:48.321Z,98296.81
2022-11-23T07:01:23.801Z,98302.63
2022-11-23T07:03:59.747Z,98300.19
2022-11-23T07:06:33.791Z,98301.84
2022-11-23T07:09:09.281Z,98305.38
2022-11-23T07:12:03.055Z,98303.44
2022-11-23T07:14:30.599Z,98312.19
2022-11-23T07:16:58.654Z,98313.47
2022-11-23T07:19:26.250Z,98300.16
2022-11-23T07:21:59.750Z,98299.31
2022-11-23T07:24:27.467Z,98295.06
2022-11-23T07:26:54.876Z,98292.50
2022-11-23T07:29:22.686Z,98287.53
2022-11-23T07:31:50.242Z,98279.84
2022-11-23T07:34:17.841Z,98286.53
2022-11-23T07:36:45.336Z,98282.03
2022-11-23T07:39:14.475Z,98285.75
2022-11-23T07:41:42.389Z,98306.25
2022-11-23T07:44:42.253Z,98315.78
2022-11-23T07:47:29.823Z,98325.84
2022-11-23T07:49:57.321Z,98334.34
2022-11-23T07:52:25.019Z,98338.47
2022-11-23T07:54:52.568Z,98326.72
2022-11-23T07:57:20.057Z,98320.22
2022-11-23T07:59:47.605Z,98328.75
2022-11-23T08:02:16.513Z,98332.47
2022-11-23T08:04:44.198Z,98346.88
2022-11-23T08:07:12.144Z,98351.56
2022-11-23T08:09:39.726Z,98343.53
2022-11-23T08:12:07.934Z,98332.19
2022-11-23T08:14:35.708Z,98340.44
2022-11-23T08:17:03.671Z,98335.94
2022-11-23T08:19:31.194Z,98323.63
2022-11-23T08:21:58.705Z,98325.69
2022-11-23T08:24:26.257Z,98312.00
2022-11-23T08:26:53.723Z,98325.53
2022-11-23T08:29:21.334Z,98322.09
2022-11-23T08:31:48.782Z,98324.38
2022-11-23T08:34:18.031Z,98316.97
2022-11-23T08:36:46.198Z,98319.41
2022-11-23T08:39:14.880Z,98329.81
2022-11-23T08:41:42.944Z,98329.44
2022-11-23T08:44:11.436Z,98340.16
2022-11-23T08:46:40.473Z,98331.50
2022-11-23T08:49:08.123Z,98328.75
2022-11-23T08:51:36.006Z,98324.59
2022-11-23T08:54:03.518Z,98338.00
2022-11-23T08:56:31.015Z,98332.25
2022-11-23T08:58:58.481Z,98323.69
2022-11-23T09:01:26.252Z,98322.84
2022-11-23T09:03:55.022Z,98320.13
2022-11-23T09:06:29.071Z,98319.09
2022-11-23T09:08:57.132Z,98315.19
2022-11-23T09:11:26.331Z,98309.44
2022-11-23T09:13:54.017Z,98313.72
2022-11-23T09:16:21.775Z,98324.44
2022-11-23T09:18:50.139Z,98323.03
2022-11-23T09:21:17.711Z,98319.97
2022-11-23T09:23:45.304Z,98322.44
2022-11-23T09:26:12.840Z,98317.06
2022-11-23T09:28:44.758Z,98310.97
2022-11-23T09:31:12.654Z,98304.66
2022-11-23T09:33:40.096Z,98300.75
2022-11-23T09:36:08.196Z,98302.31
2022-11-23T09:38:55.650Z,98296.09
2022-11-23T09:41:53.457Z,98280.25
2022-11-23T09:44:54.419Z,98275.47
2022-11-23T09:47:36.834Z,98269.09
2022-11-23T09:50:33.665Z,98254.41
2022-11-23T09:53:11.889Z,98259.00
2022-11-23T09:55:49.465Z,98255.38
2022-11-23T09:58:21.171Z,98247.44
2022-11-23T10:00:59.631Z,98245.41
2022-11-23T10:03:29.345Z,98258.59
2022-11-23T10:06:20.581Z,98246.63
2022-11-23T10:08:56.789Z,98247.22
2022-11-23T10:12:01.756Z,98237.72
2022-11-23T10:15:04.980Z,98243.66
2022-11-23T10:18:05.844Z,98245.69
2022-11-23T10:20:43.892Z,98250.16
2022-11-23T10:23:34.553Z,98237.31
2022-11-23T10:26:02.107Z,98234.06
2022-11-23T10:28:32.949Z,98246.69
2022-11-23T10:31:23.493Z,98243.91
2022-11-23T10:34:10.825Z,98229.19
2022-11-23T10:36:41.416Z,98231.16
2022-11-23T10:39:21.858Z,98233.44
2022-11-23T10:41:51.888Z,98237.22
2022-11-23T10:44:29.207Z,98244.91
2022-11-23T10:46:57.078Z,98245.09
2022-11-23T10:49:33.586Z,98240.88
2022-11-23T10:52:05.879Z,98242.81
2022-11-23T10:54:36.481Z,98237.59
2022-11-23T10:57:37.103Z,98237.63
2022-11-23T11:00:17.957Z,98241.47
2022-11-23T11:02:51.663Z,98238.44
2022-11-23T11:08:20.810Z,98234.53
2022-11-23T11:11:20.047Z,98228.78
2022-11-23T11:13:49.492Z,98220.22
2022-11-23T11:16:27.990Z,98218.25
2022-11-23T11:18:56.479Z,98213.75
2022-11-23T11:21:33.578Z,98213.31
2022-11-23T11:24:14.213Z,98218.78
2022-11-23T11:26:59.542Z,98218.72
2022-11-23T11:29:39.062Z,98216.16
2022-11-23T11:32:49.392Z,98207.06
2022-11-23T11:35:42.953Z,98205.44
2022-11-23T11:39:01.647Z,98212.16
2022-11-23T11:41:36.169Z,98209.28
2022-11-23T11:44:24.640Z,98205.22
2022-11-23T11:47:00.612Z,98208.75
2022-11-23T11:49:43.809Z,98212.03
2022-11-23T11:52:24.981Z,98216.78
2022-11-23T11:55:18.485Z,98220.53
2022-11-23T11:57:56.521Z,98224.31
2022-11-23T12:00:24.134Z,98220.50
2022-11-23T12:03:22.023Z,98227.25
2022-11-23T12:05:56.351Z,98227.78
2022-11-23T12:09:07.624Z,98239.31
2022-11-23T12:11:35.519Z,98238.69
2022-11-23T12:14:09.382Z,98238.78
2022-11-23T12:17:32.066Z,98244.09
2022-11-23T12:20:29.032Z,98230.81
2022-11-23T12:22:58.047Z,98232.59
2022-11-23T12:25:36.771Z,98234.06
2022-11-23T12:28:23.307Z,98235.44
2022-11-23T12:31:11.902Z,98238.16
2022-11-23T12:34:31.903Z,98237.19
2022-11-23T12:37:22.349Z,98230.50
2022-11-23T12:40:17.329Z,98237.59
2022-11-23T12:42:55.045Z,98236.69
2022-11-23T12:46:03.344Z,98235.44
2022-11-23T12:49:06.594Z,98237.41
2022-11-23T12:51:48.706Z,98246.94
2022-11-23T12:54:48.132Z,98262.66
2022-11-23T12:57:30.615Z,98257.66
2022-11-23T13:00:18.525Z,98255.88
2022-11-23T13:02:55.039Z,98249.38
2022-11-23T13:05:40.639Z,98249.13
2022-11-23T13:08:22.599Z,98242.16
2022-11-23T13:11:19.234Z,98242.47
2022-11-23T13:14:16.795Z,98246.75
2022-11-23T13:17:22.168Z,98250.41
2022-11-23T13:20:42.890Z,98249.75
2022-11-23T13:23:10.666Z,98261.34
2022-11-23T13:25:38.783Z,98264.19
2022-11-23T13:28:31.589Z,98265.09
2022-11-23T13:31:27.766Z,98269.00
2022-11-23T13:34:01.768Z,98271.97
2022-11-23T13:37:10.455Z,98274.06
2022-11-23T13:39:57.224Z,98271.91
2022-11-23T13:42:31.546Z,98276.88
2022-11-23T13:45:39.825Z,98276.53
2022-11-23T13:48:13.262Z,98267.53
2022-11-23T13:50:49.682Z,98264.84
2022-11-23T13:53:27.380Z,98270.22
2022-11-23T13:56:15.346Z,98262.63
2022-11-23T13:59:19.161Z,98267.56
2022-11-23T14:02:08.461Z,98268.47
2022-11-23T14:04:41.688Z,98270.88
2022-11-23T14:07:47.581Z,98285.72
2022-11-23T14:10:23.171Z,98285.84
2022-11-23T14:13:18.558Z,98281.75
2022-11-23T14:15:56.936Z,98278.50
2022-11-23T14:19:04.387Z,98281.38
2022-11-23T14:22:12.485Z,98278.88
2022-11-23T14:25:17.399Z,98287.59
2022-11-23T14:28:25.086Z,98279.47
2022-11-23T14:31:21.000Z,98278.94
2022-11-23T14:34:19.526Z,98289.53
2022-11-23T14:37:14.469Z,98296.72
2022-11-23T14:39:47.693Z,98294.81
2022-11-23T14:42:20.800Z,98306.78
2022-11-23T14:45:13.752Z,98312.00
2022-11-23T14:47:42.988Z,98299.00
2022-11-23T14:50:31.575Z,98296.69
2022-11-23T14:53:11.818Z,98299.94
2022-11-23T14:55:40.192Z,98297.41
2022-11-23T14:58:12.139Z,98295.44
2022-11-23T15:00:43.481Z,98295.47
2022-11-23T15:06:18.012Z,98291.75
2022-11-23T15:09:03.615Z,98290.91
2022-11-23T15:11:34.044Z,98300.91
2022-11-23T15:14:04.754Z,98295.03
2022-11-23T15:16:42.759Z,98299.50
2022-11-23T15:19:27.502Z,98297.69
2022-11-23T15:21:56.816Z,98289.50
2022-11-23T15:24:45.458Z,98289.25
2022-11-23T15:27:22.358Z,98291.44
2022-11-23T15:30:03.282Z,98297.00
2022-11-23T15:32:34.740Z,98291.88
2022-11-23T15:35:08.317Z,98297.88
2022-11-23T15:37:48.899Z,98306.13
2022-11-23T15:40:19.371Z,98300.84
2022-11-23T15:42:50.994Z,98302.28
2022-11-23T15:45:37.449Z,98309.06
2022-11-23T15:48:12.280Z,98313.53
2022-11-23T15:50:51.609Z,98307.50
2022-11-23T15:53:22.562Z,98306.00
2022-11-23T15:55:54.913Z,98311.28
2022-11-23T15:58:25.424Z,98310.81
2022-11-23T16:01:16.183Z,98317.22
2022-11-23T16:03:58.412Z,98311.59
2022-11-23T16:06:40.322Z,98318.22
2022-11-23T16:09:51.238Z,98329.75
2022-11-23T16:12:34.181Z,98334.91
2022-11-23T16:15:49.603Z,98327.78
2022-11-23T16:18:28.172Z,98332.38
2022-11-23T16:21:04.128Z,98331.44
2022-11-23T16:23:54.583Z,98340.81
2022-11-23T16:26:34.526Z,98352.75
2022-11-23T16:29:27.255Z,98366.34
2022-11-23T16:32:03.790Z,98366.00
2022-11-23T16:34:33.366Z,98373.84
2022-11-23T16:37:06.099Z,98366.47
2022-11-23T16:39:35.626Z,98372.91
2022-11-23T16:42:04.800Z,98370.28
2022-11-23T16:44:41.216Z,98367.97
2022-11-23T16:47:31.098Z,98377.03
2022-11-23T16:50:00.043Z,98375.19
2022-11-23T16:52:29.393Z,98381.31
2022-11-23T16:54:59.673Z,98374.19
2022-11-23T16:57:59.931Z,98368.63
2022-11-23T17:00:29.058Z,98375.94
2022-11-23T17:03:00.113Z,98368.19
2022-11-23T17:05:28.903Z,98357.56
2022-11-23T17:08:02.028Z,98362.97
2022-11-23T17:10:33.123Z,98366.34
2022-11-23T17:13:04.481Z,98364.63
2022-11-23T17:15:32.211Z,98369.66
2022-11-23T17:18:01.173Z,98362.03
2022-11-23T17:20:31.020Z,98382.16
2022-11-23T17:23:03.392Z,98376.28
2022-11-23T17:25:35.693Z,98371.97
2022-11-23T17:28:22.110Z,98369.16
2022-11-23T17:30:52.040Z,98372.47
2022-11-23T17:33:22.739Z,98369.03
2022-11-23T17:35:56.087Z,98373.88
2022-11-23T17:38:27.158Z,98368.59
2022-11-23T17:40:59.421Z,98383.13
2022-11-23T17:43:31.465Z,98384.28
2022-11-23T17:46:04.241Z,98387.13
2022-11-23T17:48:42.136Z,98386.72
2022-11-23T17:51:16.348Z,98394.59
2022-11-23T17:53:45.953Z,98392.59
2022-11-23T17:56:24.223Z,98392.59
2022-11-23T17:59:01.641Z,98397.56
2022-11-23T18:01:33.130Z,98413.06
2022-11-23T18:04:05.122Z,98416.72
2022-11-23T18:06:37.053Z,98418.00
2022-11-23T18:09:08.017Z,98420.28
2022-11-23T18:11:38.506Z,98420.72
2022-11-23T18:14:10.212Z,98415.47
2022-11-23T18:16:40.127Z,98413.84
2022-11-23T18:19:15.088Z,98415.78
2022-11-23T18:21:43.965Z,98421.00
2022-11-23T18:24:22.511Z,98422.00
2022-11-23T18:26:52.322Z,98422.75
2022-11-23T18:29:25.386Z,98419.03
2022-11-23T18:31:57.417Z,98427.94
2022-11-23T18:34:28.178Z,98427.78
2022-11-23T18:36:59.055Z,98437.00
2022-11-23T18:39:51.413Z,98430.38
2022-11-23T18:42:25.341Z,98427.59
2022-11-23T18:44:57.974Z,98425.56
2022-11-23T18:47:30.082Z,98432.16
2022-11-23T18:50:06.667Z,98436.72
2022-11-23T18:52:35.696Z,98432.06
2022-11-23T18:55:07.331Z,98437.06
2022-11-23T18:57:43.852Z,98438.84
2022-11-23T19:00:30.634Z,98430.63
2022-11-23T19:03:22.850Z,98430.47
2022-11-23T19:05:54.511Z,98418.38
2022-11-23T19:08:27.082Z,98417.53
2022-11-23T19:10:56.885Z,98422.63
2022-11-23T19:13:31.226Z,98415.41
2022-11-23T19:16:03.036Z,98424.00
2022-11-23T19:18:41.456Z,98435.94
2022-11-23T19:21:22.720Z,98440.00
2022-11-23T19:23:56.454Z,98441.66
2022-11-23T19:26:30.204Z,98441.66
2022-11-23T19:29:05.327Z,98451.03
2022-11-23T19:31:35.415Z,98448.06
2022-11-23T19:34:12.833Z,98442.56
2022-11-23T19:36:43.071Z,98440.28
2022-11-23T19:39:11.356Z,98439.75
2022-11-23T19:41:39.792Z,98451.78
2022-11-23T19:44:09.364Z,98457.03
2022-11-23T19:46:37.292Z,98453.13
2022-11-23T19:49:07.259Z,98457.88
2022-11-23T19:51:39.316Z,98460.44
2022-11-23T19:54:10.288Z,98460.22
2022-11-23T19:56:38.333Z,98454.59
2022-11-23T19:59:06.562Z,98454.00
2022-11-23T20:01:34.495Z,98461.97
2022-11-23T20:04:09.736Z,98458.31
2022-11-23T20:06:42.513Z,98464.44
2022-11-23T20:09:22.860Z,98466.75
2022-11-23T20:11:51.834Z,98467.72
2022-11-23T20:14:21.533Z,98471.41
2022-11-23T20:16:51.131Z,98476.53
2022-11-23T20:19:21.186Z,98483.31
2022-11-23T20:21:50.907Z,98480.50
2022-11-23T20:24:18.545Z,98482.00
2022-11-23T20:26:48.398Z,98486.22
2022-11-23T20:29:17.299Z,98483.81
2022-11-23T20:31:45.061Z,98491.84
2022-11-23T20:34:16.914Z,98488.31
2022-11-23T20:36:48.379Z,98488.31
2022-11-23T20:39:16.745Z,98494.84
2022-11-23T20:41:45.335Z,98498.13
2022-11-23T20:44:15.527Z,98491.72
2022-11-23T20:49:33.415Z,98502.31
2022-11-23T20:52:02.605Z,98493.56
2022-11-23T20:54:30.201Z,98495.84
2022-11-23T20:57:03.113Z,98498.91
2022-11-23T20:59:33.089Z,98498.91
2022-11-23T21:02:01.092Z,98511.06
2022-11-23T21:04:28.795Z,98511.72
2022-11-23T21:06:56.379Z,98527.31
2022-11-23T21:09:24.008Z,98520.91
2022-11-23T21:12:10.015Z,98523.34
2022-11-23T21:14:38.073Z,98524.34
2022-11-23T21:17:06.665Z,98529.47
2022-11-23T21:19:37.751Z,98531.94
2022-11-23T21:22:15.294Z,98526.03
2022-11-23T21:24:45.408Z,98531.44
2022-11-23T21:27:14.024Z,98532.25
2022-11-23T21:29:44.109Z,98534.53
2022-11-23T21:32:14.778Z,98531.59
2022-11-23T21:34:44.981Z,98528.97
2022-11-23T21:37:13.156Z,98537.81
2022-11-23T21:39:47.921Z,98536.81
2022-11-23T21:42:18.809Z,98546.97
2022-11-23T21:44:46.454Z,98544.13
2022-11-23T21:47:14.959Z,98543.25
2022-11-23T21:49:43.634Z,98541.72
2022-11-23T21:52:11.172Z,98542.59
2022-11-23T21:54:38.823Z,98536.38
2022-11-23T21:57:06.376Z,98535.97
2022-11-23T21:59:33.905Z,98536.41
2022-11-23T22:02:04.744Z,98534.41
2022-11-23T22:04:32.384Z,98543.06
2022-11-23T22:07:00.147Z,98543.06
2022-11-23T22:09:28.130Z,98545.25
2022-11-23T22:11:55.845Z,98553.31
2022-11-23T22:14:23.362Z,98547.09
2022-11-23T22:16:51.248Z,98547.91
2022-11-23T22:19:19.091Z,98549.25
2022-11-23T22:21:47.623Z,98555.50
2022-11-23T22:24:22.281Z,98563.38
2022-11-23T22:26:49.790Z,98559.84
2022-11-23T22:29:17.424Z,98567.72
2022-11-23T22:31:45.216Z,98563.50
2022-11-23T22:34:14.793Z,98557.88
2022-11-23T22:36:43.255Z,98566.53
2022-11-23T22:39:11.154Z,98551.25
2022-11-23T22:41:39.716Z,98567.41
2022-11-23T22:44:10.090Z,98557.69
2022-11-23T22:46:40.078Z,98557.78
2022-11-23T22:49:07.943Z,98555.94
2022-11-23T22:51:36.027Z,98558.22
2022-11-23T22:54:04.525Z,98558.34
2022-11-23T22:56:32.745Z,98555.50
2022-11-23T22:59:00.626Z,98552.00
2022-11-23T23:01:30.867Z,98549.69
2022-11-23T23:04:01.899Z,98554.22
2022-11-23T23:06:36.056Z,98553.78
2022-11-23T23:09:07.242Z,98565.38
2022-11-23T23:11:36.022Z,98560.91
2022-11-23T23:14:03.782Z,98565.47
2022-11-23T23:16:31.540Z,98566.31
2022-11-23T23:18:59.893Z,98559.84
2022-11-23T23:21:30.717Z,98561.06
2022-11-23T23:24:01.299Z,98561.09
2022-11-23T23:26:29.880Z,98556.94
2022-11-23T23:29:00.382Z,98553.22
2022-11-23T23:31:29.967Z,98557.69
2022-11-23T23:33:59.117Z,98560.22
2022-11-23T23:36:26.640Z,98555.63
2022-11-23T23:38:54.272Z,98552.38
2022-11-23T23:41:22.060Z,98565.44
2022-11-23T23:43:49.661Z,98557.63
2022-11-23T23:46:17.729Z,98551.16
2022-11-23T23:48:45.528Z,98545.41
2022-11-23T23:51:22.401Z,98549.50
2022-11-23T23:53:51.390Z,98546.25
2022-11-23T23:56:27.336Z,98561.59
2022-11-23T23:59:00.231Z,98558.81
